Buoy 44906

sailwx.info

Track history (hours):
 
Tides and Currents Weather Stations Pressure Air Temp Water Temp Dewpoint Dewpoint Depression Visibility Wind Speed Wind Dir Waves Ship Positions

Drifting buoy 44906

Last reported at 2017-Jul-20 20:00 UTC. Time now 2017-Jul-20 20:37 UTC.
Position N 37°13' W 030°08'.

Water temperature 23.6 ° C

Date/timePositionNaut miles runAvg speedWind from/ knotsBaromVisibWave heightAir tempDewpointWater temp
2017-Jul-20 20:00N 37°13' W 030°08'1 1.3 23.6
2017-Jul-20 19:00N 37°14' W 030°07'0 0.0 23.7
2017-Jul-20 18:00N 37°14' W 030°07'0 0.5 23.8
2017-Jul-20 17:00N 37°14' W 030°07'2 1.5 23.8
2017-Jul-20 16:00N 37°16' W 030°08'1 0.6 23.8
2017-Jul-20 14:00N 37°17' W 030°08'1 1.0 23.8
2017-Jul-20 13:00N 37°17' W 030°09'1 1.1 23.7
2017-Jul-20 12:00N 37°16' W 030°08'1 1.0 23.7
2017-Jul-20 11:00N 37°16' W 030°09'0 0.0 23.6
2017-Jul-20 10:00N 37°16' W 030°09'1 1.1 23.6
2017-Jul-20 09:00N 37°16' W 030°08'0 0.0 23.6
2017-Jul-20 08:00N 37°16' W 030°08'0 0.5 23.6
2017-Jul-20 07:00N 37°16' W 030°07'0 0.0 23.6
2017-Jul-20 06:00N 37°16' W 030°07'1 1.2 23.6
2017-Jul-20 05:00N 37°17' W 030°07'0 0.0 23.6
2017-Jul-20 04:00N 37°17' W 030°07'0 0.0 23.6
2017-Jul-20 00:00N 37°17' W 030°07'2 1.5 23.7
2017-Jul-19 23:00N 37°18' W 030°06'1 1.4 23.8
2017-Jul-19 22:00N 37°18' W 030°08'1 0.8 23.8
2017-Jul-19 21:00N 37°19' W 030°08'1 1.0 23.8
2017-Jul-19 20:00N 37°19' W 030°10'0 0.0 23.8
2017-Jul-19 19:00N 37°19' W 030°10'0 0.5 23.8
2017-Jul-19 18:00N 37°19' W 030°10'0 0.0 23.8
2017-Jul-19 17:00N 37°19' W 030°10'1 1.0 23.8
2017-Jul-19 16:00N 37°19' W 030°11'0 0.0 23.7
2017-Jul-19 15:00N 37°19' W 030°11'2 1.0 23.7
2017-Jul-19 13:00N 37°19' W 030°14'3 2.9 23.6
2017-Jul-19 12:00N 37°19' W 030°10'1 1.1 23.6
2017-Jul-19 11:00N 37°18' W 030°11'0 0.5 23.5
2017-Jul-19 10:00N 37°18' W 030°11'4 3.7 23.5
2017-Jul-19 09:00N 37°20' W 030°14'0 0.0 23.4
2017-Jul-19 08:00N 37°20' W 030°14'0 0.0 23.4
2017-Jul-19 07:00N 37°20' W 030°14'0 0.0 23.4
2017-Jul-19 06:00N 37°20' W 030°14'2 2.3 23.4
2017-Jul-19 05:00N 37°22' W 030°16'0 0.0 23.4
2017-Jul-19 04:00N 37°22' W 030°16'0 0.0 23.4
2017-Jul-19 00:00N 37°22' W 030°16'0 0.0 23.5
2017-Jul-18 23:00N 37°22' W 030°16'0 0.0 23.4
2017-Jul-18 22:00N 37°22' W 030°16'0 0.0 23.5
2017-Jul-18 21:00N 37°22' W 030°16'1 0.8 23.5
2017-Jul-18 20:00N 37°23' W 030°17'1 0.6 23.5
2017-Jul-18 19:00N 37°22' W 030°17'1 0.8 23.5
2017-Jul-18 18:00N 37°23' W 030°17'0 0.0 23.5
2017-Jul-18 17:00N 37°23' W 030°17'1 1.0 23.5
2017-Jul-18 16:00N 37°23' W 030°19'0 0.0 23.4
2017-Jul-18 15:00N 37°23' W 030°19'1 0.5 23.4
2017-Jul-18 12:00N 37°23' W 030°17'2 2.3 23.1
2017-Jul-18 11:00N 37°25' W 030°19'0 0.0 23.0
2017-Jul-18 10:00N 37°25' W 030°19'0 0.5 23.0
2017-Jul-18 09:00N 37°25' W 030°18'1 1.0 23.0
2017-Jul-18 08:00N 37°25' W 030°17'1 1.3 22.9
2017-Jul-18 07:00N 37°26' W 030°17'1 1.4 22.9
2017-Jul-18 06:00N 37°26' W 030°19'0 0.0 22.9
2017-Jul-18 05:00N 37°26' W 030°19'2 1.9 22.9
2017-Jul-18 04:00N 37°27' W 030°21'0 0.0 22.9
2017-Jul-18 03:00N 37°27' W 030°21'0 0.0 23.0
2017-Jul-18 00:00N 37°27' W 030°21'1 1.3 23.0
2017-Jul-17 23:00N 37°28' W 030°20'0 0.0 23.0
2017-Jul-17 22:00N 37°28' W 030°20'1 0.8 23.0
2017-Jul-17 21:00N 37°29' W 030°20'0 0.0 23.1
2017-Jul-17 20:00N 37°29' W 030°20'2 1.9 23.2
2017-Jul-17 19:00N 37°30' W 030°22'0 0.0 23.3
2017-Jul-17 18:00N 37°30' W 030°22'1 1.0 23.3
2017-Jul-17 17:00N 37°30' W 030°23'0 0.0 23.2
2017-Jul-17 16:00N 37°30' W 030°23'0 0.0 23.1
2017-Jul-17 15:00N 37°30' W 030°23'2 0.8 23.1
2017-Jul-17 13:00N 37°31' W 030°25'0 0.0 23.1
2017-Jul-17 12:00N 37°31' W 030°25'0 0.0 23.0
2017-Jul-17 11:00N 37°31' W 030°25'1 1.0 23.1
2017-Jul-17 10:00N 37°31' W 030°26'1 1.0 23.0
2017-Jul-17 09:00N 37°31' W 030°27'2 2.3 23.0
2017-Jul-17 08:00N 37°32' W 030°25'0 0.0 23.0
2017-Jul-17 07:00N 37°32' W 030°25'2 2.0 23.0
2017-Jul-17 06:00N 37°32' W 030°27'0 0.0 23.0
2017-Jul-17 05:00N 37°32' W 030°27'0 0.0 22.8
2017-Jul-17 04:00N 37°32' W 030°27'2 0.3 22.9
2017-Jul-16 23:00N 37°33' W 030°29'2 1.5 23.3
2017-Jul-16 22:00N 37°32' W 030°31'1 1.1 23.4
2017-Jul-16 21:00N 37°33' W 030°29'0 0.0 23.4
2017-Jul-16 20:00N 37°33' W 030°29'1 1.1 23.5
2017-Jul-16 19:00N 37°34' W 030°31'0 0.0 23.6
2017-Jul-16 18:00N 37°34' W 030°31'1 1.4 23.6
2017-Jul-16 17:00N 37°34' W 030°32'0 0.0 23.6
2017-Jul-16 16:00N 37°34' W 030°32'0 0.0 23.6
2017-Jul-16 15:00N 37°34' W 030°32'2 0.5 23.7
2017-Jul-16 12:00N 37°33' W 030°34'0 0.0 23.6
2017-Jul-16 11:00N 37°33' W 030°34'1 1.3 23.1
2017-Jul-16 10:00N 37°32' W 030°35'1 0.8 22.9
2017-Jul-16 09:00N 37°32' W 030°35'0 0.5 23.1
2017-Jul-16 08:00N 37°32' W 030°35'0 0.0 23.3
2017-Jul-16 07:00N 37°32' W 030°35'0 0.0 23.4
2017-Jul-16 06:00N 37°32' W 030°35'0 0.0 23.5
2017-Jul-16 05:00N 37°32' W 030°35'0 0.0 23.4
2017-Jul-16 04:00N 37°32' W 030°35'1 0.4 23.6
2017-Jul-16 00:00N 37°32' W 030°37'0 0.0 23.9
2017-Jul-15 23:00N 37°32' W 030°37'0 0.0 24.0
2017-Jul-15 22:00N 37°32' W 030°37'1 1.1 24.0
2017-Jul-15 21:00N 37°32' W 030°38'1 1.0 24.2
2017-Jul-15 20:00N 37°32' W 030°39'1 0.6 24.0
2017-Jul-15 19:00N 37°31' W 030°39'1 0.6 23.9
2017-Jul-15 18:00N 37°31' W 030°39'0 0.0 24.0
2017-Jul-15 17:00N 37°31' W 030°39'2 1.5 24.1
2017-Jul-15 16:00N 37°30' W 030°41'2 1.5 23.9
2017-Jul-15 15:00N 37°31' W 030°39'1 0.4 24.0
2017-Jul-15 12:00N 37°29' W 030°38'0 0.5 23.3
2017-Jul-15 11:00N 37°29' W 030°39'1 0.6 23.1
2017-Jul-15 10:00N 37°29' W 030°39'0 0.5 23.1
2017-Jul-15 09:00N 37°29' W 030°38'0 0.5 23.1
2017-Jul-15 08:00N 37°29' W 030°38'0 0.0 23.1
2017-Jul-15 07:00N 37°29' W 030°38'2 1.5 23.1
2017-Jul-15 06:00N 37°29' W 030°36'4 3.9 23.1
2017-Jul-15 05:00N 37°29' W 030°41'0 0.0 23.1
2017-Jul-15 00:00N 37°29' W 030°41'1 0.3 23.2
2017-Jul-14 22:00N 37°28' W 030°41'1 0.8 23.2
2017-Jul-14 21:00N 37°28' W 030°41'0 0.5 23.2
2017-Jul-14 20:00N 37°28' W 030°41'1 1.1 23.3
2017-Jul-14 19:00N 37°27' W 030°40'0 0.0 23.2
2017-Jul-14 18:00N 37°27' W 030°40'1 0.3 22.9
2017-Jul-14 14:00N 37°28' W 030°40'2 1.9 22.4
2017-Jul-14 13:00N 37°27' W 030°38'1 0.6 22.2
2017-Jul-14 12:00N 37°28' W 030°38'0 0.5 22.1
2017-Jul-14 11:00N 37°28' W 030°39'0 0.5 22.1
2017-Jul-14 10:00N 37°28' W 030°38'1 1.0 22.0
2017-Jul-14 09:00N 37°28' W 030°40'0 0.5 22.0
2017-Jul-14 08:00N 37°28' W 030°39'1 1.3 22.1
2017-Jul-14 07:00N 37°29' W 030°40'1 0.8 22.1
2017-Jul-14 06:00N 37°28' W 030°39'1 1.2 22.2
2017-Jul-14 05:00N 37°29' W 030°39'0 0.0 22.2
2017-Jul-14 00:00N 37°29' W 030°39'0 0.5 22.3
2017-Jul-13 23:00N 37°29' W 030°40'0 0.0 22.4
2017-Jul-13 22:00N 37°29' W 030°40'1 0.8 22.4
2017-Jul-13 21:00N 37°30' W 030°40'1 0.8 22.6
2017-Jul-13 20:00N 37°29' W 030°40'1 0.8 22.6
2017-Jul-13 19:00N 37°30' W 030°39'0 0.0 22.4
2017-Jul-13 18:00N 37°30' W 030°39'1 0.6 22.5
2017-Jul-13 17:00N 37°31' W 030°39'0 0.0 22.4
2017-Jul-13 16:00N 37°31' W 030°39'2 1.9 22.4
2017-Jul-13 15:00N 37°32' W 030°40'2 0.6 22.4
2017-Jul-13 12:00N 37°31' W 030°40'1 0.6 22.2
2017-Jul-13 11:00N 37°30' W 030°40'0 0.5 22.2
2017-Jul-13 10:00N 37°30' W 030°39'1 0.8 22.1
2017-Jul-13 09:00N 37°29' W 030°40'1 1.0 22.2
2017-Jul-13 08:00N 37°29' W 030°38'0 0.0 22.1
2017-Jul-13 07:00N 37°29' W 030°38'1 0.8 22.2
2017-Jul-13 06:00N 37°30' W 030°38'2 2.4 22.2
2017-Jul-13 05:00N 37°32' W 030°37'2 0.3 22.2
2017-Jul-13 00:00N 37°32' W 030°39'1 1.1 22.3
2017-Jul-12 23:00N 37°32' W 030°38'1 1.0 22.3
2017-Jul-12 22:00N 37°32' W 030°39'2 1.5 22.3
2017-Jul-12 21:00N 37°32' W 030°37'1 0.6 22.4
2017-Jul-12 20:00N 37°31' W 030°37'0 0.0 22.6
2017-Jul-12 19:00N 37°31' W 030°37'0 0.0 22.5
2017-Jul-12 18:00N 37°31' W 030°37'0 0.0 22.6
2017-Jul-12 17:00N 37°31' W 030°37'0 0.2 22.7
2017-Jul-12 15:00N 37°31' W 030°37'1 0.6 22.5
2017-Jul-12 14:00N 37°32' W 030°37'0 0.0 22.4
2017-Jul-12 13:00N 37°32' W 030°37'1 0.8 22.2
2017-Jul-12 12:00N 37°32' W 030°37'0 0.0 22.2
2017-Jul-12 11:00N 37°32' W 030°37'1 1.0 22.2
2017-Jul-12 10:00N 37°32' W 030°36'0 0.0 22.2
2017-Jul-12 09:00N 37°32' W 030°36'0 0.5 22.2
2017-Jul-12 08:00N 37°32' W 030°37'2 2.2 22.2
2017-Jul-12 07:00N 37°34' W 030°34'0 0.0 22.2
2017-Jul-12 06:00N 37°34' W 030°34'1 0.8 22.2
2017-Jul-12 05:00N 37°33' W 030°35'2 1.2 22.1
2017-Jul-12 03:00N 37°34' W 030°38'0 0.0 22.1
2017-Jul-12 00:00N 37°34' W 030°38'1 0.8 22.2
2017-Jul-11 23:00N 37°33' W 030°37'2 2.4 22.2
2017-Jul-11 22:00N 37°33' W 030°34'0 0.0 22.2
2017-Jul-11 21:00N 37°33' W 030°34'0 0.0 22.3
2017-Jul-11 20:00N 37°33' W 030°34'1 1.3 22.4
2017-Jul-11 19:00N 37°32' W 030°35'2 1.9 22.4
2017-Jul-11 18:00N 37°34' W 030°35'0 0.5 22.3
2017-Jul-11 17:00N 37°34' W 030°36'0 0.0 22.2
2017-Jul-11 16:00N 37°34' W 030°36'0 0.0 22.2
2017-Jul-11 15:00N 37°34' W 030°36'1 0.3 22.1
2017-Jul-11 13:00N 37°34' W 030°36'0 0.0 22.0
2017-Jul-11 12:00N 37°34' W 030°36'1 0.8 21.8
2017-Jul-11 11:00N 37°35' W 030°35'1 0.6 21.7
2017-Jul-11 10:00N 37°35' W 030°35'2 2.0 21.6
2017-Jul-11 09:00N 37°34' W 030°37'0 0.0 21.7
2017-Jul-11 08:00N 37°34' W 030°37'2 2.0 21.7
2017-Jul-11 07:00N 37°34' W 030°34'1 0.8 21.7
2017-Jul-11 06:00N 37°35' W 030°35'1 0.8 21.7
2017-Jul-11 05:00N 37°35' W 030°35'1 1.0 21.7
2017-Jul-11 04:00N 37°35' W 030°37'0 0.0 21.7
2017-Jul-11 00:00N 37°35' W 030°37'1 0.8 22.0
2017-Jul-10 23:00N 37°35' W 030°37'0 0.0 22.0
2017-Jul-10 22:00N 37°35' W 030°37'0 0.0 22.1
2017-Jul-10 21:00N 37°35' W 030°37'3 3.1 22.1
2017-Jul-10 20:00N 37°34' W 030°34'   22.2
Track history (hours):
 
Tides and Currents Weather Stations Pressure Air Temp Water Temp Dewpoint Dewpoint Depression Visibility Wind Speed Wind Dir Waves Ship Positions

Drifting buoy 44906

Last reported at 2017-Jul-20 20:00 UTC. Time now 2017-Jul-20 20:37 UTC.
Position N 37°13' W 030°08'.

Water temperature 23.6 ° C

Date/timePositionNaut miles runAvg speedWind from/ knotsBaromVisibWave heightAir tempDewpointWater temp
2017-Jul-20 20:00N 37°13' W 030°08'1 1.3 23.6
2017-Jul-20 19:00N 37°14' W 030°07'0 0.0 23.7
2017-Jul-20 18:00N 37°14' W 030°07'0 0.5 23.8
2017-Jul-20 17:00N 37°14' W 030°07'2 1.5 23.8
2017-Jul-20 16:00N 37°16' W 030°08'1 0.6 23.8
2017-Jul-20 14:00N 37°17' W 030°08'1 1.0 23.8
2017-Jul-20 13:00N 37°17' W 030°09'1 1.1 23.7
2017-Jul-20 12:00N 37°16' W 030°08'1 1.0 23.7
2017-Jul-20 11:00N 37°16' W 030°09'0 0.0 23.6
2017-Jul-20 10:00N 37°16' W 030°09'1 1.1 23.6
2017-Jul-20 09:00N 37°16' W 030°08'0 0.0 23.6
2017-Jul-20 08:00N 37°16' W 030°08'0 0.5 23.6
2017-Jul-20 07:00N 37°16' W 030°07'0 0.0 23.6
2017-Jul-20 06:00N 37°16' W 030°07'1 1.2 23.6
2017-Jul-20 05:00N 37°17' W 030°07'0 0.0 23.6
2017-Jul-20 04:00N 37°17' W 030°07'0 0.0 23.6
2017-Jul-20 00:00N 37°17' W 030°07'2 1.5 23.7
2017-Jul-19 23:00N 37°18' W 030°06'1 1.4 23.8
2017-Jul-19 22:00N 37°18' W 030°08'1 0.8 23.8
2017-Jul-19 21:00N 37°19' W 030°08'1 1.0 23.8
2017-Jul-19 20:00N 37°19' W 030°10'0 0.0 23.8
2017-Jul-19 19:00N 37°19' W 030°10'0 0.5 23.8
2017-Jul-19 18:00N 37°19' W 030°10'0 0.0 23.8
2017-Jul-19 17:00N 37°19' W 030°10'1 1.0 23.8
2017-Jul-19 16:00N 37°19' W 030°11'0 0.0 23.7
2017-Jul-19 15:00N 37°19' W 030°11'2 1.0 23.7
2017-Jul-19 13:00N 37°19' W 030°14'3 2.9 23.6
2017-Jul-19 12:00N 37°19' W 030°10'1 1.1 23.6
2017-Jul-19 11:00N 37°18' W 030°11'0 0.5 23.5
2017-Jul-19 10:00N 37°18' W 030°11'4 3.7 23.5
2017-Jul-19 09:00N 37°20' W 030°14'0 0.0 23.4
2017-Jul-19 08:00N 37°20' W 030°14'0 0.0 23.4
2017-Jul-19 07:00N 37°20' W 030°14'0 0.0 23.4
2017-Jul-19 06:00N 37°20' W 030°14'2 2.3 23.4
2017-Jul-19 05:00N 37°22' W 030°16'0 0.0 23.4
2017-Jul-19 04:00N 37°22' W 030°16'0 0.0 23.4
2017-Jul-19 00:00N 37°22' W 030°16'0 0.0 23.5
2017-Jul-18 23:00N 37°22' W 030°16'0 0.0 23.4
2017-Jul-18 22:00N 37°22' W 030°16'0 0.0 23.5
2017-Jul-18 21:00N 37°22' W 030°16'1 0.8 23.5
2017-Jul-18 20:00N 37°23' W 030°17'1 0.6 23.5
2017-Jul-18 19:00N 37°22' W 030°17'1 0.8 23.5
2017-Jul-18 18:00N 37°23' W 030°17'0 0.0 23.5
2017-Jul-18 17:00N 37°23' W 030°17'1 1.0 23.5
2017-Jul-18 16:00N 37°23' W 030°19'0 0.0 23.4
2017-Jul-18 15:00N 37°23' W 030°19'1 0.5 23.4
2017-Jul-18 12:00N 37°23' W 030°17'2 2.3 23.1
2017-Jul-18 11:00N 37°25' W 030°19'0 0.0 23.0
2017-Jul-18 10:00N 37°25' W 030°19'0 0.5 23.0
2017-Jul-18 09:00N 37°25' W 030°18'1 1.0 23.0
2017-Jul-18 08:00N 37°25' W 030°17'1 1.3 22.9
2017-Jul-18 07:00N 37°26' W 030°17'1 1.4 22.9
2017-Jul-18 06:00N 37°26' W 030°19'0 0.0 22.9
2017-Jul-18 05:00N 37°26' W 030°19'2 1.9 22.9
2017-Jul-18 04:00N 37°27' W 030°21'0 0.0 22.9
2017-Jul-18 03:00N 37°27' W 030°21'0 0.0 23.0
2017-Jul-18 00:00N 37°27' W 030°21'1 1.3 23.0
2017-Jul-17 23:00N 37°28' W 030°20'0 0.0 23.0
2017-Jul-17 22:00N 37°28' W 030°20'1 0.8 23.0
2017-Jul-17 21:00N 37°29' W 030°20'0 0.0 23.1
2017-Jul-17 20:00N 37°29' W 030°20'2 1.9 23.2
2017-Jul-17 19:00N 37°30' W 030°22'0 0.0 23.3
2017-Jul-17 18:00N 37°30' W 030°22'1 1.0 23.3
2017-Jul-17 17:00N 37°30' W 030°23'0 0.0 23.2
2017-Jul-17 16:00N 37°30' W 030°23'0 0.0 23.1
2017-Jul-17 15:00N 37°30' W 030°23'2 0.8 23.1
2017-Jul-17 13:00N 37°31' W 030°25'0 0.0 23.1
2017-Jul-17 12:00N 37°31' W 030°25'0 0.0 23.0
2017-Jul-17 11:00N 37°31' W 030°25'1 1.0 23.1
2017-Jul-17 10:00N 37°31' W 030°26'1 1.0 23.0
2017-Jul-17 09:00N 37°31' W 030°27'2 2.3 23.0
2017-Jul-17 08:00N 37°32' W 030°25'0 0.0 23.0
2017-Jul-17 07:00N 37°32' W 030°25'2 2.0 23.0
2017-Jul-17 06:00N 37°32' W 030°27'0 0.0 23.0
2017-Jul-17 05:00N 37°32' W 030°27'0 0.0 22.8
2017-Jul-17 04:00N 37°32' W 030°27'2 0.3 22.9
2017-Jul-16 23:00N 37°33' W 030°29'2 1.5 23.3
2017-Jul-16 22:00N 37°32' W 030°31'1 1.1 23.4
2017-Jul-16 21:00N 37°33' W 030°29'0 0.0 23.4
2017-Jul-16 20:00N 37°33' W 030°29'1 1.1 23.5
2017-Jul-16 19:00N 37°34' W 030°31'0 0.0 23.6
2017-Jul-16 18:00N 37°34' W 030°31'1 1.4 23.6
2017-Jul-16 17:00N 37°34' W 030°32'0 0.0 23.6
2017-Jul-16 16:00N 37°34' W 030°32'0 0.0 23.6
2017-Jul-16 15:00N 37°34' W 030°32'2 0.5 23.7
2017-Jul-16 12:00N 37°33' W 030°34'0 0.0 23.6
2017-Jul-16 11:00N 37°33' W 030°34'1 1.3 23.1
2017-Jul-16 10:00N 37°32' W 030°35'1 0.8 22.9
2017-Jul-16 09:00N 37°32' W 030°35'0 0.5 23.1
2017-Jul-16 08:00N 37°32' W 030°35'0 0.0 23.3
2017-Jul-16 07:00N 37°32' W 030°35'0 0.0 23.4
2017-Jul-16 06:00N 37°32' W 030°35'0 0.0 23.5
2017-Jul-16 05:00N 37°32' W 030°35'0 0.0 23.4
2017-Jul-16 04:00N 37°32' W 030°35'1 0.4 23.6
2017-Jul-16 00:00N 37°32' W 030°37'0 0.0 23.9
2017-Jul-15 23:00N 37°32' W 030°37'0 0.0 24.0
2017-Jul-15 22:00N 37°32' W 030°37'1 1.1 24.0
2017-Jul-15 21:00N 37°32' W 030°38'1 1.0 24.2
2017-Jul-15 20:00N 37°32' W 030°39'1 0.6 24.0
2017-Jul-15 19:00N 37°31' W 030°39'1 0.6 23.9
2017-Jul-15 18:00N 37°31' W 030°39'0 0.0 24.0
2017-Jul-15 17:00N 37°31' W 030°39'2 1.5 24.1
2017-Jul-15 16:00N 37°30' W 030°41'2 1.5 23.9
2017-Jul-15 15:00N 37°31' W 030°39'1 0.4 24.0
2017-Jul-15 12:00N 37°29' W 030°38'0 0.5 23.3
2017-Jul-15 11:00N 37°29' W 030°39'1 0.6 23.1
2017-Jul-15 10:00N 37°29' W 030°39'0 0.5 23.1
2017-Jul-15 09:00N 37°29' W 030°38'0 0.5 23.1
2017-Jul-15 08:00N 37°29' W 030°38'0 0.0 23.1
2017-Jul-15 07:00N 37°29' W 030°38'2 1.5 23.1
2017-Jul-15 06:00N 37°29' W 030°36'4 3.9 23.1
2017-Jul-15 05:00N 37°29' W 030°41'0 0.0 23.1
2017-Jul-15 00:00N 37°29' W 030°41'1 0.3 23.2
2017-Jul-14 22:00N 37°28' W 030°41'1 0.8 23.2
2017-Jul-14 21:00N 37°28' W 030°41'0 0.5 23.2
2017-Jul-14 20:00N 37°28' W 030°41'1 1.1 23.3
2017-Jul-14 19:00N 37°27' W 030°40'0 0.0 23.2
2017-Jul-14 18:00N 37°27' W 030°40'1 0.3 22.9
2017-Jul-14 14:00N 37°28' W 030°40'2 1.9 22.4
2017-Jul-14 13:00N 37°27' W 030°38'1 0.6 22.2
2017-Jul-14 12:00N 37°28' W 030°38'0 0.5 22.1
2017-Jul-14 11:00N 37°28' W 030°39'0 0.5 22.1
2017-Jul-14 10:00N 37°28' W 030°38'1 1.0 22.0
2017-Jul-14 09:00N 37°28' W 030°40'0 0.5 22.0
2017-Jul-14 08:00N 37°28' W 030°39'1 1.3 22.1
2017-Jul-14 07:00N 37°29' W 030°40'1 0.8 22.1
2017-Jul-14 06:00N 37°28' W 030°39'1 1.2 22.2
2017-Jul-14 05:00N 37°29' W 030°39'0 0.0 22.2
2017-Jul-14 00:00N 37°29' W 030°39'0 0.5 22.3
2017-Jul-13 23:00N 37°29' W 030°40'0 0.0 22.4
2017-Jul-13 22:00N 37°29' W 030°40'1 0.8 22.4
2017-Jul-13 21:00N 37°30' W 030°40'1 0.8 22.6
2017-Jul-13 20:00N 37°29' W 030°40'1 0.8 22.6
2017-Jul-13 19:00N 37°30' W 030°39'0 0.0 22.4
2017-Jul-13 18:00N 37°30' W 030°39'1 0.6 22.5
2017-Jul-13 17:00N 37°31' W 030°39'0 0.0 22.4
2017-Jul-13 16:00N 37°31' W 030°39'2 1.9 22.4
2017-Jul-13 15:00N 37°32' W 030°40'2 0.6 22.4
2017-Jul-13 12:00N 37°31' W 030°40'1 0.6 22.2
2017-Jul-13 11:00N 37°30' W 030°40'0 0.5 22.2
2017-Jul-13 10:00N 37°30' W 030°39'1 0.8 22.1
2017-Jul-13 09:00N 37°29' W 030°40'1 1.0 22.2
2017-Jul-13 08:00N 37°29' W 030°38'0 0.0 22.1
2017-Jul-13 07:00N 37°29' W 030°38'1 0.8 22.2
2017-Jul-13 06:00N 37°30' W 030°38'2 2.4 22.2
2017-Jul-13 05:00N 37°32' W 030°37'2 0.3 22.2
2017-Jul-13 00:00N 37°32' W 030°39'1 1.1 22.3
2017-Jul-12 23:00N 37°32' W 030°38'1 1.0 22.3
2017-Jul-12 22:00N 37°32' W 030°39'2 1.5 22.3
2017-Jul-12 21:00N 37°32' W 030°37'1 0.6 22.4
2017-Jul-12 20:00N 37°31' W 030°37'0 0.0 22.6
2017-Jul-12 19:00N 37°31' W 030°37'0 0.0 22.5
2017-Jul-12 18:00N 37°31' W 030°37'0 0.0 22.6
2017-Jul-12 17:00N 37°31' W 030°37'0 0.2 22.7
2017-Jul-12 15:00N 37°31' W 030°37'1 0.6 22.5
2017-Jul-12 14:00N 37°32' W 030°37'0 0.0 22.4
2017-Jul-12 13:00N 37°32' W 030°37'1 0.8 22.2
2017-Jul-12 12:00N 37°32' W 030°37'0 0.0 22.2
2017-Jul-12 11:00N 37°32' W 030°37'1 1.0 22.2
2017-Jul-12 10:00N 37°32' W 030°36'0 0.0 22.2
2017-Jul-12 09:00N 37°32' W 030°36'0 0.5 22.2
2017-Jul-12 08:00N 37°32' W 030°37'2 2.2 22.2
2017-Jul-12 07:00N 37°34' W 030°34'0 0.0 22.2
2017-Jul-12 06:00N 37°34' W 030°34'1 0.8 22.2
2017-Jul-12 05:00N 37°33' W 030°35'2 1.2 22.1
2017-Jul-12 03:00N 37°34' W 030°38'0 0.0 22.1
2017-Jul-12 00:00N 37°34' W 030°38'1 0.8 22.2
2017-Jul-11 23:00N 37°33' W 030°37'2 2.4 22.2
2017-Jul-11 22:00N 37°33' W 030°34'0 0.0 22.2
2017-Jul-11 21:00N 37°33' W 030°34'0 0.0 22.3
2017-Jul-11 20:00N 37°33' W 030°34'1 1.3 22.4
2017-Jul-11 19:00N 37°32' W 030°35'2 1.9 22.4
2017-Jul-11 18:00N 37°34' W 030°35'0 0.5 22.3
2017-Jul-11 17:00N 37°34' W 030°36'0 0.0 22.2
2017-Jul-11 16:00N 37°34' W 030°36'0 0.0 22.2
2017-Jul-11 15:00N 37°34' W 030°36'1 0.3 22.1
2017-Jul-11 13:00N 37°34' W 030°36'0 0.0 22.0
2017-Jul-11 12:00N 37°34' W 030°36'1 0.8 21.8
2017-Jul-11 11:00N 37°35' W 030°35'1 0.6 21.7
2017-Jul-11 10:00N 37°35' W 030°35'2 2.0 21.6
2017-Jul-11 09:00N 37°34' W 030°37'0 0.0 21.7
2017-Jul-11 08:00N 37°34' W 030°37'2 2.0 21.7
2017-Jul-11 07:00N 37°34' W 030°34'1 0.8 21.7
2017-Jul-11 06:00N 37°35' W 030°35'1 0.8 21.7
2017-Jul-11 05:00N 37°35' W 030°35'1 1.0 21.7
2017-Jul-11 04:00N 37°35' W 030°37'0 0.0 21.7
2017-Jul-11 00:00N 37°35' W 030°37'1 0.8 22.0
2017-Jul-10 23:00N 37°35' W 030°37'0 0.0 22.0
2017-Jul-10 22:00N 37°35' W 030°37'0 0.0 22.1
2017-Jul-10 21:00N 37°35' W 030°37'3 3.1 22.1
2017-Jul-10 20:00N 37°34' W 030°34'   22.2

Dump ship's entire track history